sensor_id;sensor_type;location;lat;lon;timestamp;P1;durP1;ratioP1;P2;durP2;ratioP2
20449;SDS011;10384;51.940;8.432;2023-02-28T00:00:35;5.07;;;2.60;;
20449;SDS011;10384;51.940;8.432;2023-02-28T00:03:02;5.57;;;2.47;;
20449;SDS011;10384;51.940;8.432;2023-02-28T00:05:28;10.20;;;2.90;;
20449;SDS011;10384;51.940;8.432;2023-02-28T00:07:54;3.73;;;2.30;;
20449;SDS011;10384;51.940;8.432;2023-02-28T00:10:22;4.97;;;2.17;;
20449;SDS011;10384;51.940;8.432;2023-02-28T00:12:49;5.27;;;2.40;;
20449;SDS011;10384;51.940;8.432;2023-02-28T00:15:16;4.23;;;2.20;;
20449;SDS011;10384;51.940;8.432;2023-02-28T00:17:42;5.33;;;2.87;;
20449;SDS011;10384;51.940;8.432;2023-02-28T00:20:08;7.33;;;3.33;;
20449;SDS011;10384;51.940;8.432;2023-02-28T00:22:37;3.23;;;2.10;;
20449;SDS011;10384;51.940;8.432;2023-02-28T00:25:04;5.37;;;2.40;;
20449;SDS011;10384;51.940;8.432;2023-02-28T00:27:31;7.77;;;3.20;;
20449;SDS011;10384;51.940;8.432;2023-02-28T00:29:57;8.03;;;3.07;;
20449;SDS011;10384;51.940;8.432;2023-02-28T00:32:23;4.97;;;2.60;;
20449;SDS011;10384;51.940;8.432;2023-02-28T00:34:49;5.20;;;2.63;;
20449;SDS011;10384;51.940;8.432;2023-02-28T00:37:15;5.80;;;2.47;;
20449;SDS011;10384;51.940;8.432;2023-02-28T00:39:41;5.20;;;2.73;;
20449;SDS011;10384;51.940;8.432;2023-02-28T00:42:08;3.50;;;2.40;;
20449;SDS011;10384;51.940;8.432;2023-02-28T00:44:34;4.60;;;2.50;;
20449;SDS011;10384;51.940;8.432;2023-02-28T00:47:00;6.03;;;2.40;;
20449;SDS011;10384;51.940;8.432;2023-02-28T00:49:26;6.07;;;2.50;;
20449;SDS011;10384;51.940;8.432;2023-02-28T00:51:53;5.50;;;2.20;;
20449;SDS011;10384;51.940;8.432;2023-02-28T00:54:19;6.37;;;2.60;;
20449;SDS011;10384;51.940;8.432;2023-02-28T00:56:45;5.00;;;2.27;;
20449;SDS011;10384;51.940;8.432;2023-02-28T00:59:12;4.37;;;2.43;;
20449;SDS011;10384;51.940;8.432;2023-02-28T01:01:38;4.33;;;2.60;;
20449;SDS011;10384;51.940;8.432;2023-02-28T01:04:04;6.73;;;2.47;;
20449;SDS011;10384;51.940;8.432;2023-02-28T01:06:30;4.17;;;2.40;;
20449;SDS011;10384;51.940;8.432;2023-02-28T01:08:56;4.27;;;2.43;;
20449;SDS011;10384;51.940;8.432;2023-02-28T01:11:22;3.53;;;2.13;;
20449;SDS011;10384;51.940;8.432;2023-02-28T01:13:48;3.97;;;2.37;;
20449;SDS011;10384;51.940;8.432;2023-02-28T01:16:14;5.43;;;2.07;;
20449;SDS011;10384;51.940;8.432;2023-02-28T01:18:40;5.03;;;2.33;;
20449;SDS011;10384;51.940;8.432;2023-02-28T01:21:08;5.00;;;2.10;;
20449;SDS011;10384;51.940;8.432;2023-02-28T01:23:34;4.73;;;1.97;;
20449;SDS011;10384;51.940;8.432;2023-02-28T01:26:07;4.87;;;2.43;;
20449;SDS011;10384;51.940;8.432;2023-02-28T01:28:33;6.53;;;2.20;;
20449;SDS011;10384;51.940;8.432;2023-02-28T01:31:00;4.73;;;2.33;;
20449;SDS011;10384;51.940;8.432;2023-02-28T01:33:26;2.37;;;1.70;;
20449;SDS011;10384;51.940;8.432;2023-02-28T01:36:03;3.80;;;2.17;;
20449;SDS011;10384;51.940;8.432;2023-02-28T01:38:30;4.07;;;2.43;;
20449;SDS011;10384;51.940;8.432;2023-02-28T01:40:56;6.70;;;2.47;;
20449;SDS011;10384;51.940;8.432;2023-02-28T01:43:23;3.77;;;2.20;;
20449;SDS011;10384;51.940;8.432;2023-02-28T01:45:50;8.17;;;3.93;;
20449;SDS011;10384;51.940;8.432;2023-02-28T01:48:16;7.10;;;3.57;;
20449;SDS011;10384;51.940;8.432;2023-02-28T01:50:43;6.90;;;3.23;;
20449;SDS011;10384;51.940;8.432;2023-02-28T01:53:12;6.90;;;3.77;;
20449;SDS011;10384;51.940;8.432;2023-02-28T01:55:39;3.33;;;2.53;;
20449;SDS011;10384;51.940;8.432;2023-02-28T01:58:06;8.70;;;3.10;;
20449;SDS011;10384;51.940;8.432;2023-02-28T02:00:33;5.03;;;2.53;;
20449;SDS011;10384;51.940;8.432;2023-02-28T02:03:05;5.13;;;2.67;;
20449;SDS011;10384;51.940;8.432;2023-02-28T02:05:32;5.90;;;2.50;;
20449;SDS011;10384;51.940;8.432;2023-02-28T02:08:03;4.10;;;2.00;;
20449;SDS011;10384;51.940;8.432;2023-02-28T02:10:38;4.43;;;2.20;;
20449;SDS011;10384;51.940;8.432;2023-02-28T02:13:08;10.70;;;2.37;;
20449;SDS011;10384;51.940;8.432;2023-02-28T02:16:23;5.33;;;2.43;;
20449;SDS011;10384;51.940;8.432;2023-02-28T02:26:50;5.20;;;2.67;;
20449;SDS011;10384;51.940;8.432;2023-02-28T02:37:24;4.67;;;2.00;;
20449;SDS011;10384;51.940;8.432;2023-02-28T02:39:59;4.40;;;1.83;;
20449;SDS011;10384;51.940;8.432;2023-02-28T02:45:14;5.00;;;2.33;;
20449;SDS011;10384;51.940;8.432;2023-02-28T02:47:42;3.97;;;2.10;;
20449;SDS011;10384;51.940;8.432;2023-02-28T02:50:11;5.17;;;1.80;;
20449;SDS011;10384;51.940;8.432;2023-02-28T02:52:42;6.77;;;1.90;;
20449;SDS011;10384;51.940;8.432;2023-02-28T02:55:10;5.77;;;2.10;;
20449;SDS011;10384;51.940;8.432;2023-02-28T02:57:38;4.77;;;2.20;;
20449;SDS011;10384;51.940;8.432;2023-02-28T03:00:06;4.43;;;2.10;;
20449;SDS011;10384;51.940;8.432;2023-02-28T03:02:34;6.30;;;2.13;;
20449;SDS011;10384;51.940;8.432;2023-02-28T03:05:03;3.73;;;2.00;;
20449;SDS011;10384;51.940;8.432;2023-02-28T03:07:30;4.97;;;2.20;;
20449;SDS011;10384;51.940;8.432;2023-02-28T03:09:56;3.30;;;2.10;;
20449;SDS011;10384;51.940;8.432;2023-02-28T03:12:44;4.83;;;2.00;;
20449;SDS011;10384;51.940;8.432;2023-02-28T03:15:17;5.63;;;2.77;;
20449;SDS011;10384;51.940;8.432;2023-02-28T03:23:16;7.20;;;2.20;;
20449;SDS011;10384;51.940;8.432;2023-02-28T03:28:00;6.17;;;2.27;;
20449;SDS011;10384;51.940;8.432;2023-02-28T03:30:29;4.57;;;2.10;;
20449;SDS011;10384;51.940;8.432;2023-02-28T03:35:33;6.27;;;2.57;;
20449;SDS011;10384;51.940;8.432;2023-02-28T03:38:01;4.97;;;2.20;;
20449;SDS011;10384;51.940;8.432;2023-02-28T03:40:31;6.23;;;2.50;;
20449;SDS011;10384;51.940;8.432;2023-02-28T03:42:59;7.93;;;2.60;;
20449;SDS011;10384;51.940;8.432;2023-02-28T03:45:28;6.93;;;3.17;;
20449;SDS011;10384;51.940;8.432;2023-02-28T03:47:57;6.23;;;2.70;;
20449;SDS011;10384;51.940;8.432;2023-02-28T03:50:25;4.30;;;2.50;;
20449;SDS011;10384;51.940;8.432;2023-02-28T03:55:25;4.70;;;2.30;;
20449;SDS011;10384;51.940;8.432;2023-02-28T03:57:56;4.63;;;2.77;;
20449;SDS011;10384;51.940;8.432;2023-02-28T04:00:25;5.87;;;2.77;;
20449;SDS011;10384;51.940;8.432;2023-02-28T04:02:53;5.17;;;2.40;;
20449;SDS011;10384;51.940;8.432;2023-02-28T04:05:20;6.27;;;2.77;;
20449;SDS011;10384;51.940;8.432;2023-02-28T04:07:46;5.17;;;2.80;;
20449;SDS011;10384;51.940;8.432;2023-02-28T04:10:13;7.47;;;3.03;;
20449;SDS011;10384;51.940;8.432;2023-02-28T04:12:39;7.87;;;2.87;;
20449;SDS011;10384;51.940;8.432;2023-02-28T04:15:05;7.83;;;2.60;;
20449;SDS011;10384;51.940;8.432;2023-02-28T04:17:31;4.67;;;2.50;;
20449;SDS011;10384;51.940;8.432;2023-02-28T04:19:57;5.07;;;2.77;;
20449;SDS011;10384;51.940;8.432;2023-02-28T04:22:23;4.87;;;2.40;;
20449;SDS011;10384;51.940;8.432;2023-02-28T04:24:52;6.37;;;2.30;;
20449;SDS011;10384;51.940;8.432;2023-02-28T04:27:19;5.83;;;2.13;;
20449;SDS011;10384;51.940;8.432;2023-02-28T04:29:45;3.53;;;2.30;;
20449;SDS011;10384;51.940;8.432;2023-02-28T04:32:11;4.20;;;2.30;;
20449;SDS011;10384;51.940;8.432;2023-02-28T04:34:37;4.43;;;2.30;;
20449;SDS011;10384;51.940;8.432;2023-02-28T04:37:03;4.90;;;2.20;;
20449;SDS011;10384;51.940;8.432;2023-02-28T04:39:29;9.07;;;2.80;;
20449;SDS011;10384;51.940;8.432;2023-02-28T04:41:55;3.33;;;1.97;;
20449;SDS011;10384;51.940;8.432;2023-02-28T04:44:22;5.47;;;2.60;;
20449;SDS011;10384;51.940;8.432;2023-02-28T04:46:48;6.60;;;2.87;;
20449;SDS011;10384;51.940;8.432;2023-02-28T04:49:15;6.13;;;2.63;;
20449;SDS011;10384;51.940;8.432;2023-02-28T04:51:41;3.90;;;2.30;;
20449;SDS011;10384;51.940;8.432;2023-02-28T04:54:07;8.17;;;2.63;;
20449;SDS011;10384;51.940;8.432;2023-02-28T04:56:33;3.33;;;2.20;;
20449;SDS011;10384;51.940;8.432;2023-02-28T04:58:59;9.60;;;2.47;;
20449;SDS011;10384;51.940;8.432;2023-02-28T05:01:29;8.67;;;2.83;;
20449;SDS011;10384;51.940;8.432;2023-02-28T05:03:56;7.73;;;2.87;;
20449;SDS011;10384;51.940;8.432;2023-02-28T05:06:23;4.40;;;2.97;;
20449;SDS011;10384;51.940;8.432;2023-02-28T05:08:50;8.83;;;3.27;;
20449;SDS011;10384;51.940;8.432;2023-02-28T05:11:17;5.50;;;2.70;;
20449;SDS011;10384;51.940;8.432;2023-02-28T05:13:44;4.53;;;2.47;;
20449;SDS011;10384;51.940;8.432;2023-02-28T05:16:10;5.03;;;2.70;;
20449;SDS011;10384;51.940;8.432;2023-02-28T05:18:36;5.30;;;2.77;;
20449;SDS011;10384;51.940;8.432;2023-02-28T05:21:02;7.00;;;3.63;;
20449;SDS011;10384;51.940;8.432;2023-02-28T05:23:28;13.77;;;3.47;;
20449;SDS011;10384;51.940;8.432;2023-02-28T05:25:54;8.57;;;3.20;;
20449;SDS011;10384;51.940;8.432;2023-02-28T05:28:20;3.67;;;2.50;;
20449;SDS011;10384;51.940;8.432;2023-02-28T05:30:46;5.63;;;2.60;;
20449;SDS011;10384;51.940;8.432;2023-02-28T05:33:12;5.80;;;2.97;;
20449;SDS011;10384;51.940;8.432;2023-02-28T05:35:39;8.73;;;2.93;;
20449;SDS011;10384;51.940;8.432;2023-02-28T05:38:05;11.83;;;2.67;;
20449;SDS011;10384;51.940;8.432;2023-02-28T05:40:31;6.87;;;3.03;;
20449;SDS011;10384;51.940;8.432;2023-02-28T05:42:57;5.13;;;3.23;;
20449;SDS011;10384;51.940;8.432;2023-02-28T05:45:23;8.80;;;4.23;;
20449;SDS011;10384;51.940;8.432;2023-02-28T05:47:52;7.87;;;3.50;;
20449;SDS011;10384;51.940;8.432;2023-02-28T05:50:18;9.80;;;4.00;;
20449;SDS011;10384;51.940;8.432;2023-02-28T05:52:48;10.67;;;4.40;;
20449;SDS011;10384;51.940;8.432;2023-02-28T05:55:14;9.00;;;3.90;;
20449;SDS011;10384;51.940;8.432;2023-02-28T05:57:40;8.60;;;3.90;;
20449;SDS011;10384;51.940;8.432;2023-02-28T06:00:07;19.23;;;4.17;;
20449;SDS011;10384;51.940;8.432;2023-02-28T06:02:33;15.97;;;4.10;;
20449;SDS011;10384;51.940;8.432;2023-02-28T06:04:59;10.13;;;4.33;;
20449;SDS011;10384;51.940;8.432;2023-02-28T06:07:25;14.30;;;4.07;;
20449;SDS011;10384;51.940;8.432;2023-02-28T06:09:51;9.53;;;3.40;;
20449;SDS011;10384;51.940;8.432;2023-02-28T06:12:17;25.63;;;4.10;;
20449;SDS011;10384;51.940;8.432;2023-02-28T06:14:43;12.17;;;3.90;;
20449;SDS011;10384;51.940;8.432;2023-02-28T06:17:09;11.50;;;3.87;;
20449;SDS011;10384;51.940;8.432;2023-02-28T06:19:36;10.37;;;3.97;;
20449;SDS011;10384;51.940;8.432;2023-02-28T06:22:03;8.33;;;3.80;;
20449;SDS011;10384;51.940;8.432;2023-02-28T06:24:29;8.77;;;3.23;;
20449;SDS011;10384;51.940;8.432;2023-02-28T06:26:56;8.70;;;3.13;;
20449;SDS011;10384;51.940;8.432;2023-02-28T06:29:24;12.20;;;3.90;;
20449;SDS011;10384;51.940;8.432;2023-02-28T06:31:50;7.27;;;3.27;;
20449;SDS011;10384;51.940;8.432;2023-02-28T06:34:16;9.03;;;3.73;;
20449;SDS011;10384;51.940;8.432;2023-02-28T06:36:42;5.27;;;2.97;;
20449;SDS011;10384;51.940;8.432;2023-02-28T06:39:08;18.73;;;3.33;;
20449;SDS011;10384;51.940;8.432;2023-02-28T06:41:35;10.03;;;3.50;;
20449;SDS011;10384;51.940;8.432;2023-02-28T06:44:11;7.07;;;3.77;;
20449;SDS011;10384;51.940;8.432;2023-02-28T06:46:38;14.10;;;3.50;;
20449;SDS011;10384;51.940;8.432;2023-02-28T06:49:04;7.83;;;3.63;;
20449;SDS011;10384;51.940;8.432;2023-02-28T06:51:34;12.07;;;3.20;;
20449;SDS011;10384;51.940;8.432;2023-02-28T06:54:00;7.87;;;3.70;;
20449;SDS011;10384;51.940;8.432;2023-02-28T06:56:26;15.97;;;3.53;;
20449;SDS011;10384;51.940;8.432;2023-02-28T06:58:52;10.17;;;3.77;;
20449;SDS011;10384;51.940;8.432;2023-02-28T07:01:18;9.33;;;3.90;;
20449;SDS011;10384;51.940;8.432;2023-02-28T07:03:44;11.73;;;4.13;;
20449;SDS011;10384;51.940;8.432;2023-02-28T07:06:10;7.27;;;3.90;;
20449;SDS011;10384;51.940;8.432;2023-02-28T07:08:37;15.37;;;4.57;;
20449;SDS011;10384;51.940;8.432;2023-02-28T07:11:05;8.73;;;3.73;;
20449;SDS011;10384;51.940;8.432;2023-02-28T07:13:31;15.00;;;4.20;;
20449;SDS011;10384;51.940;8.432;2023-02-28T07:15:58;10.67;;;3.77;;
20449;SDS011;10384;51.940;8.432;2023-02-28T07:18:24;12.37;;;4.60;;
20449;SDS011;10384;51.940;8.432;2023-02-28T07:20:51;9.03;;;3.83;;
20449;SDS011;10384;51.940;8.432;2023-02-28T07:23:17;8.13;;;3.27;;
20449;SDS011;10384;51.940;8.432;2023-02-28T07:25:43;8.50;;;3.53;;
20449;SDS011;10384;51.940;8.432;2023-02-28T07:28:10;12.63;;;4.80;;
20449;SDS011;10384;51.940;8.432;2023-02-28T07:30:36;14.10;;;3.60;;
20449;SDS011;10384;51.940;8.432;2023-02-28T07:33:02;10.13;;;3.80;;
20449;SDS011;10384;51.940;8.432;2023-02-28T07:35:28;6.60;;;3.77;;
20449;SDS011;10384;51.940;8.432;2023-02-28T07:37:54;7.40;;;3.60;;
20449;SDS011;10384;51.940;8.432;2023-02-28T07:40:20;5.73;;;2.90;;
20449;SDS011;10384;51.940;8.432;2023-02-28T07:42:46;7.10;;;3.40;;
20449;SDS011;10384;51.940;8.432;2023-02-28T07:45:12;7.43;;;3.73;;
20449;SDS011;10384;51.940;8.432;2023-02-28T07:47:39;7.73;;;3.37;;
20449;SDS011;10384;51.940;8.432;2023-02-28T07:50:06;8.97;;;3.47;;
20449;SDS011;10384;51.940;8.432;2023-02-28T07:52:32;6.60;;;3.00;;
20449;SDS011;10384;51.940;8.432;2023-02-28T07:54:58;9.57;;;3.63;;
20449;SDS011;10384;51.940;8.432;2023-02-28T07:57:24;7.83;;;3.00;;
20449;SDS011;10384;51.940;8.432;2023-02-28T07:59:50;8.47;;;3.10;;
20449;SDS011;10384;51.940;8.432;2023-02-28T08:02:17;9.07;;;3.20;;
20449;SDS011;10384;51.940;8.432;2023-02-28T08:04:43;6.47;;;3.10;;
20449;SDS011;10384;51.940;8.432;2023-02-28T08:07:09;12.63;;;3.07;;
20449;SDS011;10384;51.940;8.432;2023-02-28T08:09:38;8.87;;;3.80;;
20449;SDS011;10384;51.940;8.432;2023-02-28T08:12:04;8.53;;;3.73;;
20449;SDS011;10384;51.940;8.432;2023-02-28T08:14:30;9.83;;;3.47;;
20449;SDS011;10384;51.940;8.432;2023-02-28T08:16:56;4.67;;;2.83;;
20449;SDS011;10384;51.940;8.432;2023-02-28T08:19:22;6.83;;;2.30;;
20449;SDS011;10384;51.940;8.432;2023-02-28T08:21:48;7.57;;;2.43;;
20449;SDS011;10384;51.940;8.432;2023-02-28T08:24:14;5.43;;;2.13;;
20449;SDS011;10384;51.940;8.432;2023-02-28T08:26:40;5.17;;;2.10;;
20449;SDS011;10384;51.940;8.432;2023-02-28T08:29:06;5.13;;;2.10;;
20449;SDS011;10384;51.940;8.432;2023-02-28T08:31:32;5.00;;;2.10;;
20449;SDS011;10384;51.940;8.432;2023-02-28T08:34:00;2.97;;;1.50;;
20449;SDS011;10384;51.940;8.432;2023-02-28T08:36:26;2.97;;;1.50;;
20449;SDS011;10384;51.940;8.432;2023-02-28T08:38:53;2.13;;;1.33;;
20449;SDS011;10384;51.940;8.432;2023-02-28T08:41:19;5.43;;;1.47;;
20449;SDS011;10384;51.940;8.432;2023-02-28T08:43:45;2.90;;;1.20;;
20449;SDS011;10384;51.940;8.432;2023-02-28T08:46:12;3.00;;;1.50;;
20449;SDS011;10384;51.940;8.432;2023-02-28T08:48:38;3.63;;;1.27;;
20449;SDS011;10384;51.940;8.432;2023-02-28T08:51:06;1.53;;;1.20;;
20449;SDS011;10384;51.940;8.432;2023-02-28T08:53:34;3.47;;;1.30;;
20449;SDS011;10384;51.940;8.432;2023-02-28T08:56:01;2.73;;;1.23;;
20449;SDS011;10384;51.940;8.432;2023-02-28T08:58:27;2.13;;;1.03;;
20449;SDS011;10384;51.940;8.432;2023-02-28T09:00:53;2.33;;;1.23;;
20449;SDS011;10384;51.940;8.432;2023-02-28T09:03:20;2.60;;;1.13;;
20449;SDS011;10384;51.940;8.432;2023-02-28T09:05:56;2.47;;;1.10;;
20449;SDS011;10384;51.940;8.432;2023-02-28T09:08:23;2.07;;;1.10;;
20449;SDS011;10384;51.940;8.432;2023-02-28T09:10:49;2.73;;;1.23;;
20449;SDS011;10384;51.940;8.432;2023-02-28T09:13:15;2.77;;;1.27;;
20449;SDS011;10384;51.940;8.432;2023-02-28T09:15:41;1.73;;;1.10;;
20449;SDS011;10384;51.940;8.432;2023-02-28T09:18:07;4.10;;;1.50;;
20449;SDS011;10384;51.940;8.432;2023-02-28T09:20:33;2.27;;;1.40;;
20449;SDS011;10384;51.940;8.432;2023-02-28T09:22:59;1.43;;;0.80;;
20449;SDS011;10384;51.940;8.432;2023-02-28T09:25:25;1.77;;;1.10;;
20449;SDS011;10384;51.940;8.432;2023-02-28T09:27:51;3.30;;;1.30;;
20449;SDS011;10384;51.940;8.432;2023-02-28T09:30:17;2.37;;;1.20;;
20449;SDS011;10384;51.940;8.432;2023-02-28T09:32:43;3.40;;;1.27;;
20449;SDS011;10384;51.940;8.432;2023-02-28T09:35:16;7.83;;;1.40;;
20449;SDS011;10384;51.940;8.432;2023-02-28T09:37:42;1.60;;;1.20;;
20449;SDS011;10384;51.940;8.432;2023-02-28T09:40:09;2.57;;;1.00;;
20449;SDS011;10384;51.940;8.432;2023-02-28T09:42:35;2.40;;;1.30;;
20449;SDS011;10384;51.940;8.432;2023-02-28T09:45:02;1.53;;;1.00;;
20449;SDS011;10384;51.940;8.432;2023-02-28T09:47:31;3.20;;;1.20;;
20449;SDS011;10384;51.940;8.432;2023-02-28T09:49:59;2.07;;;1.30;;
20449;SDS011;10384;51.940;8.432;2023-02-28T09:52:28;2.37;;;1.27;;
20449;SDS011;10384;51.940;8.432;2023-02-28T09:54:55;3.17;;;1.50;;
20449;SDS011;10384;51.940;8.432;2023-02-28T10:05:14;2.67;;;1.60;;
20449;SDS011;10384;51.940;8.432;2023-02-28T10:12:53;4.83;;;1.70;;
20449;SDS011;10384;51.940;8.432;2023-02-28T10:15:21;3.70;;;1.33;;
20449;SDS011;10384;51.940;8.432;2023-02-28T10:17:48;4.63;;;1.80;;
20449;SDS011;10384;51.940;8.432;2023-02-28T10:20:16;3.10;;;1.40;;
20449;SDS011;10384;51.940;8.432;2023-02-28T10:25:24;2.33;;;1.33;;
20449;SDS011;10384;51.940;8.432;2023-02-28T10:27:52;5.50;;;1.57;;
20449;SDS011;10384;51.940;8.432;2023-02-28T10:30:19;2.33;;;1.50;;
20449;SDS011;10384;51.940;8.432;2023-02-28T10:32:47;5.10;;;1.77;;
20449;SDS011;10384;51.940;8.432;2023-02-28T10:35:16;2.70;;;1.37;;
20449;SDS011;10384;51.940;8.432;2023-02-28T10:37:44;2.73;;;1.47;;
20449;SDS011;10384;51.940;8.432;2023-02-28T10:40:32;2.93;;;1.27;;
20449;SDS011;10384;51.940;8.432;2023-02-28T10:43:04;2.83;;;1.43;;
20449;SDS011;10384;51.940;8.432;2023-02-28T10:45:31;2.70;;;1.23;;
20449;SDS011;10384;51.940;8.432;2023-02-28T10:48:03;2.03;;;1.50;;
20449;SDS011;10384;51.940;8.432;2023-02-28T10:50:50;3.47;;;1.33;;
20449;SDS011;10384;51.940;8.432;2023-02-28T11:01:10;3.73;;;1.60;;
20449;SDS011;10384;51.940;8.432;2023-02-28T11:03:37;7.20;;;1.60;;
20449;SDS011;10384;51.940;8.432;2023-02-28T11:06:05;2.80;;;1.70;;
20449;SDS011;10384;51.940;8.432;2023-02-28T11:08:31;5.53;;;1.60;;
20449;SDS011;10384;51.940;8.432;2023-02-28T11:10:58;6.93;;;1.60;;
20449;SDS011;10384;51.940;8.432;2023-02-28T11:13:26;5.73;;;1.93;;
20449;SDS011;10384;51.940;8.432;2023-02-28T11:15:54;3.10;;;1.80;;
20449;SDS011;10384;51.940;8.432;2023-02-28T11:20:53;7.33;;;1.70;;
20449;SDS011;10384;51.940;8.432;2023-02-28T11:23:20;3.93;;;1.33;;
20449;SDS011;10384;51.940;8.432;2023-02-28T11:25:47;2.33;;;1.40;;
20449;SDS011;10384;51.940;8.432;2023-02-28T11:28:28;2.90;;;1.17;;
20449;SDS011;10384;51.940;8.432;2023-02-28T11:31:02;6.03;;;1.77;;
20449;SDS011;10384;51.940;8.432;2023-02-28T11:33:29;1.80;;;0.90;;
20449;SDS011;10384;51.940;8.432;2023-02-28T11:36:01;1.90;;;1.00;;
20449;SDS011;10384;51.940;8.432;2023-02-28T11:38:28;1.53;;;0.90;;
20449;SDS011;10384;51.940;8.432;2023-02-28T11:43:30;1.97;;;1.03;;
20449;SDS011;10384;51.940;8.432;2023-02-28T11:46:06;2.60;;;1.10;;
20449;SDS011;10384;51.940;8.432;2023-02-28T11:51:32;2.27;;;1.20;;
20449;SDS011;10384;51.940;8.432;2023-02-28T12:01:35;5.47;;;1.00;;
20449;SDS011;10384;51.940;8.432;2023-02-28T12:06:55;2.23;;;1.10;;
20449;SDS011;10384;51.940;8.432;2023-02-28T12:14:47;1.70;;;1.20;;
20449;SDS011;10384;51.940;8.432;2023-02-28T12:17:30;3.23;;;1.57;;
20449;SDS011;10384;51.940;8.432;2023-02-28T12:28:10;4.80;;;1.80;;
20449;SDS011;10384;51.940;8.432;2023-02-28T12:30:37;4.67;;;1.30;;
20449;SDS011;10384;51.940;8.432;2023-02-28T12:33:11;2.67;;;1.60;;
20449;SDS011;10384;51.940;8.432;2023-02-28T12:35:49;3.20;;;1.70;;
20449;SDS011;10384;51.940;8.432;2023-02-28T12:38:17;2.93;;;1.60;;
20449;SDS011;10384;51.940;8.432;2023-02-28T12:40:47;3.13;;;1.57;;
20449;SDS011;10384;51.940;8.432;2023-02-28T12:43:15;3.27;;;1.40;;
20449;SDS011;10384;51.940;8.432;2023-02-28T12:46:02;2.50;;;1.50;;
20449;SDS011;10384;51.940;8.432;2023-02-28T12:48:39;7.30;;;2.07;;
20449;SDS011;10384;51.940;8.432;2023-02-28T12:51:06;2.87;;;1.50;;
20449;SDS011;10384;51.940;8.432;2023-02-28T12:53:43;4.90;;;2.03;;
20449;SDS011;10384;51.940;8.432;2023-02-28T12:58:44;2.53;;;1.47;;
20449;SDS011;10384;51.940;8.432;2023-02-28T13:06:37;3.77;;;1.70;;
20449;SDS011;10384;51.940;8.432;2023-02-28T13:11:45;2.10;;;1.50;;
20449;SDS011;10384;51.940;8.432;2023-02-28T13:14:18;3.57;;;1.70;;
20449;SDS011;10384;51.940;8.432;2023-02-28T13:16:50;2.20;;;1.43;;
20449;SDS011;10384;51.940;8.432;2023-02-28T13:19:17;5.40;;;1.60;;
20449;SDS011;10384;51.940;8.432;2023-02-28T13:21:45;4.97;;;1.60;;
20449;SDS011;10384;51.940;8.432;2023-02-28T13:24:35;1.93;;;1.50;;
20449;SDS011;10384;51.940;8.432;2023-02-28T13:29:28;9.07;;;2.30;;
20449;SDS011;10384;51.940;8.432;2023-02-28T13:34:36;6.57;;;2.60;;
20449;SDS011;10384;51.940;8.432;2023-02-28T13:39:48;3.97;;;2.07;;
20449;SDS011;10384;51.940;8.432;2023-02-28T13:47:41;8.00;;;1.83;;
20449;SDS011;10384;51.940;8.432;2023-02-28T13:52:46;3.20;;;1.40;;
20449;SDS011;10384;51.940;8.432;2023-02-28T13:55:28;3.27;;;1.67;;
20449;SDS011;10384;51.940;8.432;2023-02-28T13:58:07;2.73;;;1.40;;
20449;SDS011;10384;51.940;8.432;2023-02-28T14:00:45;2.53;;;1.60;;
20449;SDS011;10384;51.940;8.432;2023-02-28T14:06:47;2.70;;;1.50;;
20449;SDS011;10384;51.940;8.432;2023-02-28T14:09:16;4.17;;;1.60;;
20449;SDS011;10384;51.940;8.432;2023-02-28T14:11:44;2.70;;;1.63;;
20449;SDS011;10384;51.940;8.432;2023-02-28T14:16:55;3.20;;;1.70;;
20449;SDS011;10384;51.940;8.432;2023-02-28T14:19:24;3.33;;;1.97;;
20449;SDS011;10384;51.940;8.432;2023-02-28T14:24:25;5.10;;;2.10;;
20449;SDS011;10384;51.940;8.432;2023-02-28T14:36:58;3.27;;;2.03;;
20449;SDS011;10384;51.940;8.432;2023-02-28T14:39:25;3.53;;;2.37;;
20449;SDS011;10384;51.940;8.432;2023-02-28T14:41:55;5.03;;;2.03;;
20449;SDS011;10384;51.940;8.432;2023-02-28T14:44:27;3.37;;;2.00;;
20449;SDS011;10384;51.940;8.432;2023-02-28T14:46:54;4.17;;;2.17;;
20449;SDS011;10384;51.940;8.432;2023-02-28T14:49:30;7.67;;;3.40;;
20449;SDS011;10384;51.940;8.432;2023-02-28T14:54:34;5.23;;;3.30;;
20449;SDS011;10384;51.940;8.432;2023-02-28T14:57:00;5.53;;;2.53;;
20449;SDS011;10384;51.940;8.432;2023-02-28T14:59:33;3.97;;;2.30;;
20449;SDS011;10384;51.940;8.432;2023-02-28T15:04:52;5.23;;;2.20;;
20449;SDS011;10384;51.940;8.432;2023-02-28T15:07:18;3.77;;;2.10;;
20449;SDS011;10384;51.940;8.432;2023-02-28T15:09:44;3.97;;;1.80;;
20449;SDS011;10384;51.940;8.432;2023-02-28T15:12:13;3.77;;;2.00;;
20449;SDS011;10384;51.940;8.432;2023-02-28T15:14:39;6.30;;;2.53;;
20449;SDS011;10384;51.940;8.432;2023-02-28T15:17:08;4.43;;;2.13;;
20449;SDS011;10384;51.940;8.432;2023-02-28T15:19:39;3.43;;;2.03;;
20449;SDS011;10384;51.940;8.432;2023-02-28T15:22:13;2.80;;;1.70;;
20449;SDS011;10384;51.940;8.432;2023-02-28T15:24:43;4.23;;;2.50;;
20449;SDS011;10384;51.940;8.432;2023-02-28T15:27:14;5.23;;;3.20;;
20449;SDS011;10384;51.940;8.432;2023-02-28T15:29:43;3.33;;;1.73;;
20449;SDS011;10384;51.940;8.432;2023-02-28T15:32:20;3.17;;;2.00;;
20449;SDS011;10384;51.940;8.432;2023-02-28T15:34:47;4.47;;;2.40;;
20449;SDS011;10384;51.940;8.432;2023-02-28T15:40:12;3.33;;;2.47;;
20449;SDS011;10384;51.940;8.432;2023-02-28T15:42:39;4.70;;;2.50;;
20449;SDS011;10384;51.940;8.432;2023-02-28T15:45:05;7.10;;;3.27;;
20449;SDS011;10384;51.940;8.432;2023-02-28T15:47:31;6.60;;;3.30;;
20449;SDS011;10384;51.940;8.432;2023-02-28T15:49:59;4.57;;;2.40;;
20449;SDS011;10384;51.940;8.432;2023-02-28T15:52:28;5.80;;;2.90;;
20449;SDS011;10384;51.940;8.432;2023-02-28T15:54:56;3.17;;;2.27;;
20449;SDS011;10384;51.940;8.432;2023-02-28T15:57:27;5.07;;;2.73;;
20449;SDS011;10384;51.940;8.432;2023-02-28T15:59:54;7.50;;;2.87;;
20449;SDS011;10384;51.940;8.432;2023-02-28T16:02:31;6.73;;;3.13;;
20449;SDS011;10384;51.940;8.432;2023-02-28T16:04:58;4.60;;;2.63;;
20449;SDS011;10384;51.940;8.432;2023-02-28T16:07:25;5.80;;;2.40;;
20449;SDS011;10384;51.940;8.432;2023-02-28T16:09:51;6.53;;;2.30;;
20449;SDS011;10384;51.940;8.432;2023-02-28T16:12:17;4.60;;;3.03;;
20449;SDS011;10384;51.940;8.432;2023-02-28T16:14:44;3.80;;;2.30;;
20449;SDS011;10384;51.940;8.432;2023-02-28T16:17:16;4.63;;;1.93;;
20449;SDS011;10384;51.940;8.432;2023-02-28T16:19:45;3.80;;;2.90;;
20449;SDS011;10384;51.940;8.432;2023-02-28T16:22:11;4.67;;;3.10;;
20449;SDS011;10384;51.940;8.432;2023-02-28T16:24:37;7.07;;;3.07;;
20449;SDS011;10384;51.940;8.432;2023-02-28T16:27:04;4.73;;;2.53;;
20449;SDS011;10384;51.940;8.432;2023-02-28T16:29:31;4.87;;;2.70;;
20449;SDS011;10384;51.940;8.432;2023-02-28T16:31:58;5.87;;;2.40;;
20449;SDS011;10384;51.940;8.432;2023-02-28T16:34:24;3.03;;;2.33;;
20449;SDS011;10384;51.940;8.432;2023-02-28T16:36:50;3.37;;;2.20;;
20449;SDS011;10384;51.940;8.432;2023-02-28T16:39:16;3.80;;;2.43;;
20449;SDS011;10384;51.940;8.432;2023-02-28T16:41:45;7.00;;;2.87;;
20449;SDS011;10384;51.940;8.432;2023-02-28T16:44:13;5.90;;;2.57;;
20449;SDS011;10384;51.940;8.432;2023-02-28T16:46:39;3.80;;;2.50;;
20449;SDS011;10384;51.940;8.432;2023-02-28T16:49:09;3.90;;;2.53;;
20449;SDS011;10384;51.940;8.432;2023-02-28T16:51:36;4.73;;;2.30;;
20449;SDS011;10384;51.940;8.432;2023-02-28T16:54:02;3.03;;;2.20;;
20449;SDS011;10384;51.940;8.432;2023-02-28T16:56:28;5.20;;;2.40;;
20449;SDS011;10384;51.940;8.432;2023-02-28T16:58:55;6.10;;;2.33;;
20449;SDS011;10384;51.940;8.432;2023-02-28T17:01:23;4.03;;;2.40;;
20449;SDS011;10384;51.940;8.432;2023-02-28T17:03:50;4.97;;;2.70;;
20449;SDS011;10384;51.940;8.432;2023-02-28T17:06:20;3.00;;;2.37;;
20449;SDS011;10384;51.940;8.432;2023-02-28T17:08:47;5.17;;;3.20;;
20449;SDS011;10384;51.940;8.432;2023-02-28T17:11:13;4.07;;;2.40;;